Meteo Giornale » Osservazioni meteo Italia » Roma-Ciampino

ore: 05:20 - Osservazioni Meteo Roma-Ciampino
Lat. 41° 47' N Lon. 12° 35' E Alt. 129 metri s.l.m.

sereno Europe/Rome

26 °C

Sereno

Temp. 24 Ore

23 °C

35 °C

Nord

5.5 Km/h

Dew point 21 °C

Umidità 73 %

Visibilità  10 Km

Il sole sorge alle ore 06:19

Il sole tramonta alle ore 20:07

Data e Ora Cielo e Fenomeni T °C DP °C Um. % Pres. hPa Vis. km Vento km/h
Oggi h: 05:20 sereno Sereno 26 21 73 1012 10 N 5.5
Oggi h: 04:50 sereno Sereno 26 21 73 1012 10 E 11.1
Oggi h: 04:20 sereno Sereno 25 22 83 1012 10 N 14.8
Oggi h: 03:50 sereno Sereno 25 22 83 1012 10 N 1.8
Oggi h: 03:20 sereno Sereno 25 22 83 1011 10 N 5.5
Oggi h: 02:50 sereno Sereno 26 22 78 1011 10 N 5.5
Oggi h: 02:20 sereno Sereno 25 22 83 1012 10 N 3.7
Oggi h: 01:50 sereno Sereno 25 22 83 1012 10 N/NE 7.4
Oggi h: 01:20 sereno Sereno 26 22 78 1012 10 E 9.3
Oggi h: 00:50 sereno Sereno 27 22 74 1012 10 E 9.3
Oggi h: 00:20 sereno Sereno 27 22 74 1012 10 E/NE 7.4
Ieri h: 23:50 sereno Sereno 27 22 74 1012 10 N 7.4
Ieri h: 23:20 sereno Sereno 27 22 74 1012 10 E 9.3
Ieri h: 22:50 sereno Sereno 28 22 69 1012 10 E 9.3
Ieri h: 22:20 sereno Sereno 27 22 74 1012 10 SO 7.4
Ieri h: 21:50 sereno Sereno 27 22 74 1012 10 SO 13
Ieri h: 21:20 sereno Sereno 27 22 74 1012 10 SO 11.1
Ieri h: 20:50 sereno Sereno 28 23 74 1011 10 S/SO 14.8
Ieri h: 20:20 sereno Sereno 28 23 74 1011 10 SO 14.8
Ieri h: 19:50 sereno Sereno 30 23 66 1010 10 S/SO 14.8
Ieri h: 19:20 sereno Sereno 31 22 58 1010 10 S/SO 18.5
Ieri h: 18:50 sereno Sereno 32 22 55 1010 10 S/SO 18.5
Ieri h: 18:20 sereno Sereno 33 22 52 1011 10 S 18.5
Ieri h: 17:50 sereno Sereno 33 22 52 1011 10 S 18.5
Ieri h: 17:20 sereno Sereno 33 21 49 1012 10 S 24
Ieri h: 16:50 sereno Sereno 34 22 49 1012 10 S 22.2
Ieri h: 16:20 sereno Sereno 34 22 49 1012 10 S/SO 24
Ieri h: 15:50 sereno Sereno 35 20 41 1012 10 S/SO 18.5
Ieri h: 15:20 sereno Sereno 35 19 39 1012 10 S/SO 18.5
Ieri h: 14:50 sereno Sereno 34 19 41 1012 10 S/SO 14.8
Ieri h: 14:20 sereno Sereno 33 21 49 1013 10 S/SO 18.5
Ieri h: 13:50 sereno Sereno 33 22 52 1013 10 S 22.2
Ieri h: 13:20 sereno Sereno 33 21 49 1013 10 S 18.5
Ieri h: 12:50 sereno Sereno 34 18 38 1013 10 S/SO 18.5
Ieri h: 12:20 sereno Sereno 33 17 38 1013 10 S/SO 16.7
Ieri h: 11:50 sereno Sereno 33 16 36 1013 10 S/SO 16.7
Ieri h: 11:20 sereno Sereno 32 15 35 1013 10 N 5.5
Ieri h: 10:50 sereno Sereno 31 18 45 1013 10 N 5.5
Ieri h: 10:20 sereno Sereno 30 19 51 1013 10 O/SO 7.4
Ieri h: 09:50 sereno Sereno 29 20 58 1013 10 N 3.7
Ieri h: 09:20 sereno Sereno 27 20 65 1013 10 N 5.5
Ieri h: 08:50 sereno Sereno 26 21 73 1013 10 N 5.5
Ieri h: 08:20 sereno Sereno 25 21 78 1013 10 N 5.5
Ieri h: 07:50 sereno Sereno 24 21 83 1013 10 E/NE 7.4
Ieri h: 07:20 sereno Sereno 24 20 78 1013 10 N 3.7
Ieri h: 06:50 sereno Sereno 23 20 83 1013 10 N 3.7